Aneth, Utah
Current Conditions -  °F | °C
As of 5:15 AM on Sunday 23 Nov 2014 (Local Time) from KBDG Reporting Station
Scattered Clouds Scattered Clouds  
Wind Chill: 26°   Ceiling: Unl
Heat Index: 37°   Visibility: 10mi
Dew Point: 22°   Wind: 21mph
Humidity: 56%   Direction: 300°WNW
Pressure: 29.93"   Gusts: 26mph
Location:  37.22°N, 109.19°W
Report Text: KBDG 231215Z AUTO 30018G23KT 10SM SCT120 03/M05 A2993 RMK AO1 T00261054
Loading
Personal Weather Stations






























Interactive Weather Map New forecast layout! Learn more

10-Day Weather Forecast

Advertisements
Track Severe Weather on mobile